createdAt,value
2022-10-19T00:00:51.600Z,9.50
2022-10-19T00:03:40.254Z,9.30
2022-10-19T00:06:30.344Z,9.32
2022-10-19T00:09:19.455Z,9.27
2022-10-19T00:12:05.892Z,9.10
2022-10-19T00:14:52.513Z,8.57
2022-10-19T00:17:38.800Z,8.60
2022-10-19T00:20:25.376Z,9.30
2022-10-19T00:23:15.389Z,11.38
2022-10-19T00:26:02.664Z,10.55
2022-10-19T00:28:49.444Z,11.20
2022-10-19T00:31:36.263Z,11.05
2022-10-19T00:34:25.286Z,11.40
2022-10-19T00:37:12.602Z,9.35
2022-10-19T00:39:59.326Z,9.98
2022-10-19T00:42:45.770Z,9.25
2022-10-19T00:45:32.006Z,9.45
2022-10-19T00:48:28.317Z,8.80
2022-10-19T00:51:14.999Z,8.73
2022-10-19T00:54:04.257Z,9.00
2022-10-19T00:56:52.567Z,9.07
2022-10-19T00:59:40.371Z,8.87
2022-10-19T01:02:26.487Z,8.60
2022-10-19T01:05:14.630Z,9.32
2022-10-19T01:08:01.456Z,8.73
2022-10-19T01:10:52.769Z,9.20
2022-10-19T01:14:03.151Z,9.47
2022-10-19T01:17:11.744Z,9.43
2022-10-19T01:20:21.938Z,9.32
2022-10-19T01:23:14.308Z,9.18
2022-10-19T01:26:12.519Z,9.20
2022-10-19T01:29:33.554Z,9.57
2022-10-19T01:32:22.878Z,8.95
2022-10-19T01:35:37.769Z,9.23
2022-10-19T01:38:35.525Z,8.82
2022-10-19T01:41:44.506Z,9.53
2022-10-19T01:44:49.991Z,8.85
2022-10-19T01:47:48.264Z,9.40
2022-10-19T01:50:41.651Z,9.02
2022-10-19T01:53:32.590Z,9.98
2022-10-19T01:56:24.710Z,9.77
2022-10-19T01:59:12.629Z,9.90
2022-10-19T02:01:59.033Z,9.48
2022-10-19T02:04:47.257Z,9.98
2022-10-19T02:07:33.956Z,9.85
2022-10-19T02:10:20.725Z,10.48
2022-10-19T02:13:08.286Z,10.50
2022-10-19T02:15:56.859Z,10.40
2022-10-19T02:18:47.489Z,10.02
2022-10-19T02:21:34.925Z,10.48
2022-10-19T02:24:20.792Z,10.40
2022-10-19T02:27:08.347Z,11.12
2022-10-19T02:29:56.222Z,10.95
2022-10-19T02:32:43.660Z,11.65
2022-10-19T02:35:31.393Z,10.85
2022-10-19T02:38:22.514Z,11.02
2022-10-19T02:41:16.041Z,11.30
2022-10-19T02:44:16.429Z,11.63
2022-10-19T02:47:22.647Z,10.88
2022-10-19T02:50:11.079Z,11.85
2022-10-19T02:53:02.626Z,11.63
2022-10-19T02:55:50.632Z,11.77
2022-10-19T02:58:37.203Z,12.23
2022-10-19T03:01:25.400Z,12.30
2022-10-19T03:04:12.105Z,12.10
2022-10-19T03:06:58.435Z,12.73
2022-10-19T03:09:45.283Z,13.52
2022-10-19T03:12:31.931Z,13.38
2022-10-19T03:15:19.602Z,14.57
2022-10-19T03:18:07.813Z,15.52
2022-10-19T03:21:10.034Z,14.65
2022-10-19T03:23:56.710Z,14.73
2022-10-19T03:26:43.190Z,15.60
2022-10-19T03:29:32.975Z,15.25
2022-10-19T03:32:19.135Z,15.48
2022-10-19T03:35:06.587Z,15.18
2022-10-19T03:37:53.947Z,15.50
2022-10-19T03:40:42.867Z,15.23
2022-10-19T03:43:31.742Z,14.85
2022-10-19T03:46:20.734Z,16.90
2022-10-19T03:49:11.393Z,15.95
2022-10-19T03:51:59.988Z,16.40
2022-10-19T03:54:50.699Z,15.85
2022-10-19T03:57:37.697Z,14.90
2022-10-19T04:00:26.100Z,14.32
2022-10-19T04:03:24.655Z,13.88
2022-10-19T04:06:15.850Z,13.35
2022-10-19T04:09:06.564Z,13.35
2022-10-19T04:11:55.023Z,13.45
2022-10-19T04:14:56.209Z,13.15
2022-10-19T04:17:45.657Z,12.80
2022-10-19T04:20:45.607Z,13.15
2022-10-19T04:23:36.584Z,13.13
2022-10-19T04:26:27.604Z,12.90
2022-10-19T04:32:09.612Z,13.57
2022-10-19T04:34:56.227Z,13.60
2022-10-19T04:37:45.677Z,12.57
2022-10-19T04:40:37.821Z,13.10
2022-10-19T04:43:25.548Z,14.38
2022-10-19T04:46:16.410Z,14.50
2022-10-19T04:51:59.936Z,13.85
2022-10-19T04:54:46.725Z,14.40
2022-10-19T04:57:37.259Z,14.48
2022-10-19T05:00:25.736Z,14.77
2022-10-19T05:03:21.094Z,15.25
2022-10-19T05:06:11.462Z,16.17
2022-10-19T05:09:04.587Z,16.42
2022-10-19T05:11:51.334Z,15.48
2022-10-19T05:14:41.928Z,15.90
2022-10-19T05:17:33.110Z,15.90
2022-10-19T05:20:23.746Z,15.70
2022-10-19T05:23:12.547Z,15.77
2022-10-19T05:26:08.587Z,15.77
2022-10-19T05:28:58.593Z,15.80
2022-10-19T05:31:45.588Z,15.85
2022-10-19T05:34:32.689Z,16.85
2022-10-19T05:37:22.019Z,17.27
2022-10-19T05:40:10.668Z,16.87
2022-10-19T05:42:57.490Z,16.50
2022-10-19T05:45:44.977Z,16.55
2022-10-19T05:48:35.126Z,16.70
2022-10-19T05:51:24.590Z,15.82
2022-10-19T05:54:21.755Z,15.88
2022-10-19T05:57:11.934Z,16.60
2022-10-19T05:59:59.578Z,15.73
2022-10-19T06:02:58.975Z,16.62
2022-10-19T06:05:46.859Z,15.70
2022-10-19T06:08:36.988Z,15.20
2022-10-19T06:11:27.849Z,15.80
2022-10-19T06:14:16.804Z,14.45
2022-10-19T06:17:04.619Z,14.87
2022-10-19T06:19:52.099Z,15.25
2022-10-19T06:22:38.503Z,15.07
2022-10-19T06:25:32.722Z,14.85
2022-10-19T06:28:31.489Z,14.45
2022-10-19T06:31:18.689Z,14.57
2022-10-19T06:34:05.884Z,13.93
2022-10-19T06:36:56.681Z,13.40
2022-10-19T06:39:43.104Z,14.15
2022-10-19T06:42:29.583Z,13.25
2022-10-19T06:45:24.590Z,13.80
2022-10-19T06:48:15.394Z,12.88
2022-10-19T06:51:06.396Z,13.15
2022-10-19T06:53:57.189Z,13.40
2022-10-19T06:56:45.838Z,12.80
2022-10-19T06:59:33.322Z,12.68
2022-10-19T07:02:21.603Z,12.80
2022-10-19T07:05:09.746Z,12.37
2022-10-19T07:07:57.898Z,12.13
2022-10-19T07:10:53.515Z,11.85
2022-10-19T07:13:40.232Z,11.10
2022-10-19T07:16:26.913Z,11.73
2022-10-19T07:19:14.488Z,12.02
2022-10-19T07:22:01.544Z,11.77
2022-10-19T07:24:48.090Z,11.20
2022-10-19T07:27:40.841Z,12.02
2022-10-19T07:30:34.515Z,12.40
2022-10-19T07:33:21.092Z,12.00
2022-10-19T07:36:11.252Z,12.15
2022-10-19T07:38:58.282Z,11.27
2022-10-19T07:41:48.632Z,11.12
2022-10-19T07:44:36.435Z,9.95
2022-10-19T07:47:24.134Z,10.30
2022-10-19T07:50:12.756Z,9.27
2022-10-19T07:52:59.462Z,8.70
2022-10-19T07:55:46.575Z,8.40
2022-10-19T07:58:36.422Z,7.82
2022-10-19T08:01:28.788Z,7.93
2022-10-19T08:07:26.661Z,7.20
2022-10-19T08:10:15.515Z,6.87
2022-10-19T08:13:02.013Z,7.45
2022-10-19T08:15:50.827Z,7.10
2022-10-19T08:18:37.103Z,6.43
2022-10-19T08:21:26.375Z,5.90
2022-10-19T08:24:20.330Z,5.90
2022-10-19T08:27:12.046Z,5.50
2022-10-19T08:30:03.511Z,5.30
2022-10-19T08:32:50.431Z,5.33
2022-10-19T08:35:37.035Z,5.68
2022-10-19T08:38:23.943Z,5.10
2022-10-19T08:41:19.180Z,5.03
2022-10-19T08:44:34.156Z,4.82
2022-10-19T08:47:35.565Z,4.93
2022-10-19T08:50:31.056Z,4.53
2022-10-19T08:53:28.590Z,4.35
2022-10-19T08:56:50.342Z,4.20
2022-10-19T09:00:00.250Z,4.07
2022-10-19T09:03:02.416Z,3.80
2022-10-19T09:05:55.054Z,3.90
2022-10-19T09:08:42.362Z,3.62
2022-10-19T09:11:36.907Z,3.42
2022-10-19T09:14:39.102Z,3.85
2022-10-19T09:17:32.997Z,3.47
2022-10-19T09:20:23.620Z,3.60
2022-10-19T09:23:22.778Z,3.60
2022-10-19T09:26:19.134Z,3.53
2022-10-19T09:29:29.483Z,3.60
2022-10-19T09:32:34.830Z,3.80
2022-10-19T09:35:32.794Z,3.70
2022-10-19T09:38:25.480Z,4.07
2022-10-19T09:41:17.689Z,3.20
2022-10-19T09:44:05.706Z,4.65
2022-10-19T09:47:02.509Z,3.00
2022-10-19T09:49:50.638Z,3.08
2022-10-19T09:52:39.570Z,3.08
2022-10-19T09:55:32.730Z,2.70
2022-10-19T09:58:32.117Z,2.90
2022-10-19T10:01:41.941Z,3.47
2022-10-19T10:04:31.601Z,1.98
2022-10-19T10:07:18.637Z,2.80
2022-10-19T10:10:20.745Z,1.67
2022-10-19T10:13:17.651Z,2.20
2022-10-19T10:16:08.786Z,3.00
2022-10-19T10:18:58.652Z,2.50
2022-10-19T10:21:48.090Z,2.50
2022-10-19T10:24:36.502Z,2.30
2022-10-19T10:27:33.932Z,1.50
2022-10-19T10:30:21.960Z,1.40
2022-10-19T10:33:26.972Z,1.37
2022-10-19T10:36:30.541Z,1.40
2022-10-19T10:39:17.719Z,1.35
2022-10-19T10:42:11.712Z,2.37
2022-10-19T10:45:01.762Z,1.95
2022-10-19T10:47:52.780Z,1.67
2022-10-19T10:50:41.717Z,2.10
2022-10-19T10:53:35.896Z,1.80
2022-10-19T10:56:28.360Z,1.98
2022-10-19T10:59:21.759Z,2.00
2022-10-19T11:02:42.695Z,1.33
2022-10-19T11:05:32.833Z,1.23
2022-10-19T11:09:05.241Z,1.30
2022-10-19T11:11:57.610Z,1.12
2022-10-19T11:14:48.695Z,1.60
2022-10-19T11:17:39.785Z,1.48
2022-10-19T11:20:34.789Z,1.40
2022-10-19T11:23:46.622Z,1.57
2022-10-19T11:26:43.636Z,1.30
2022-10-19T11:30:09.019Z,1.60
2022-10-19T11:33:08.103Z,1.60
2022-10-19T11:35:59.006Z,1.50
2022-10-19T11:39:10.914Z,1.60
2022-10-19T11:42:34.854Z,1.55
2022-10-19T11:45:50.574Z,1.45
2022-10-19T11:48:43.744Z,1.50
2022-10-19T11:54:40.994Z,1.23
2022-10-19T11:57:34.696Z,1.12
2022-10-19T12:00:38.269Z,1.05
